Time;durP1;ratioP1;P1;durP2;ratioP2;P2;SDS_P1;SDS_P2;PMS_P1;PMS_P2;Temp;Humidity;BMP_temperature;BMP_pressure;BME280_temperature;BME280_humidity;BME280_pressure;Samples;Min_cycle;Max_cycle;Signal;HPM_P1;HPM_P2
2024/01/05 00:02:29;;;;;;;2.50;1.30;;;9.20;99.90;;;;;;5009109;28;20994;-45
2024/01/05 00:05:13;;;;;;;3.60;1.30;;;9.20;99.90;;;;;;5009327;28;20448;-48
2024/01/05 00:08:00;;;;;;;3.20;1.30;;;9.20;99.90;;;;;;5003001;28;20603;-46
2024/01/05 00:10:29;;;;;;;2.87;1.63;;;9.20;99.90;;;;;;5008141;28;20449;-45
2024/01/05 00:12:59;;;;;;;3.83;1.40;;;9.20;99.90;;;;;;5008570;28;20472;-47
2024/01/05 00:15:41;;;;;;;1.70;1.17;;;9.20;99.90;;;;;;5008501;28;20444;-46
2024/01/05 00:18:30;;;;;;;2.90;1.20;;;9.20;99.90;;;;;;5006871;28;20850;-47
2024/01/05 00:21:07;;;;;;;3.57;1.63;;;9.20;99.90;;;;;;5009557;28;20468;-47
2024/01/05 00:23:55;;;;;;;2.40;1.03;;;9.20;99.90;;;;;;5004496;28;20498;-47
2024/01/05 00:26:25;;;;;;;3.93;2.07;;;9.20;99.90;;;;;;5008899;28;20457;-45
2024/01/05 00:28:53;;;;;;;3.17;1.97;;;9.10;99.90;;;;;;5007401;28;20958;-45
2024/01/05 00:31:21;;;;;;;3.20;1.30;;;9.20;99.90;;;;;;5009244;28;20457;-45
2024/01/05 00:33:49;;;;;;;2.63;1.37;;;9.20;99.90;;;;;;5008646;28;20469;-45
2024/01/05 00:36:17;;;;;;;4.17;1.07;;;9.20;99.90;;;;;;5007255;28;20437;-46
2024/01/05 00:39:04;;;;;;;3.13;1.37;;;9.20;99.90;;;;;;5005607;28;20452;-46
2024/01/05 00:41:34;;;;;;;1.70;1.10;;;9.20;99.90;;;;;;5008912;28;20523;-47
2024/01/05 00:44:03;;;;;;;3.13;1.20;;;9.20;99.90;;;;;;5007019;28;20965;-46
2024/01/05 00:46:31;;;;;;;2.63;1.43;;;9.20;99.90;;;;;;5008394;28;20461;-46
2024/01/05 00:49:18;;;;;;;4.57;1.33;;;9.20;99.90;;;;;;5013335;28;20439;-47
2024/01/05 00:52:06;;;;;;;1.80;0.93;;;9.20;99.90;;;;;;5007948;28;20941;-46
2024/01/05 00:54:34;;;;;;;2.53;1.10;;;9.10;99.90;;;;;;5007238;28;20438;-47
2024/01/05 00:57:04;;;;;;;2.70;1.20;;;9.10;99.90;;;;;;5008352;28;20967;-48
2024/01/05 00:59:34;;;;;;;2.33;1.20;;;9.10;99.90;;;;;;5007819;28;20452;-46
2024/01/05 01:02:05;;;;;;;1.90;1.07;;;9.10;99.90;;;;;;5008210;28;20465;-47
2024/01/05 01:04:52;;;;;;;2.07;1.10;;;9.10;99.90;;;;;;5003813;28;20428;-46
2024/01/05 01:07:32;;;;;;;2.63;1.20;;;9.10;99.90;;;;;;5005337;28;20476;-46
2024/01/05 01:10:19;;;;;;;2.90;2.07;;;9.10;99.90;;;;;;5021219;28;20984;-45
2024/01/05 01:12:48;;;;;;;3.03;1.20;;;9.10;99.90;;;;;;5002965;28;20461;-48
2024/01/05 01:15:16;;;;;;;1.10;0.60;;;9.10;99.90;;;;;;5006813;28;20508;-47
2024/01/05 01:17:44;;;;;;;2.50;1.20;;;9.10;99.90;;;;;;5007969;28;20862;-47
2024/01/05 01:20:13;;;;;;;2.37;1.13;;;9.10;99.90;;;;;;5001792;28;20450;-50
2024/01/05 01:22:50;;;;;;;2.00;1.00;;;9.10;99.90;;;;;;5000557;28;20952;-47
2024/01/05 01:25:30;;;;;;;4.90;1.03;;;9.10;99.90;;;;;;5005893;28;20433;-48
2024/01/05 01:28:18;;;;;;;3.17;1.10;;;9.10;99.90;;;;;;5006486;28;20862;-49
2024/01/05 01:31:04;;;;;;;2.90;1.27;;;9.10;99.90;;;;;;5012031;28;20469;-47
2024/01/05 01:33:51;;;;;;;3.87;1.10;;;9.10;99.90;;;;;;5003263;28;20607;-48
2024/01/05 01:36:20;;;;;;;2.80;1.40;;;9.10;99.90;;;;;;5008047;28;20461;-48
2024/01/05 01:38:48;;;;;;;4.03;1.50;;;9.10;99.90;;;;;;5003519;28;20522;-46
2024/01/05 01:41:16;;;;;;;4.70;1.20;;;9.10;99.90;;;;;;5008417;28;20910;-46
2024/01/05 01:43:48;;;;;;;3.23;1.27;;;9.10;99.90;;;;;;5006117;28;20535;-46
2024/01/05 01:46:21;;;;;;;2.87;1.20;;;9.10;99.90;;;;;;5008296;28;20558;-49
2024/01/05 01:48:50;;;;;;;2.13;1.70;;;9.10;99.90;;;;;;5004790;28;20465;-49
2024/01/05 01:51:18;;;;;;;2.97;1.07;;;9.10;99.90;;;;;;5008243;28;20456;-48
2024/01/05 01:53:46;;;;;;;3.00;1.00;;;9.10;99.90;;;;;;5003407;28;20491;-47
2024/01/05 01:56:14;;;;;;;2.70;1.43;;;9.10;99.90;;;;;;5008078;28;20449;-48
2024/01/05 01:58:44;;;;;;;3.00;1.33;;;9.10;99.90;;;;;;5005741;28;20480;-48
2024/01/05 02:01:14;;;;;;;3.00;2.20;;;9.10;99.90;;;;;;5007959;28;20830;-48
2024/01/05 02:03:42;;;;;;;3.20;0.97;;;9.00;99.90;;;;;;5007393;28;20824;-46
2024/01/05 02:06:11;;;;;;;2.00;1.03;;;9.10;99.90;;;;;;5008027;28;20437;-49
2024/01/05 02:08:39;;;;;;;1.90;1.30;;;9.10;99.90;;;;;;5003984;28;20576;-46
2024/01/05 02:11:07;;;;;;;2.60;1.70;;;9.10;99.90;;;;;;5007797;28;20476;-45
2024/01/05 02:13:35;;;;;;;1.77;1.20;;;9.10;99.90;;;;;;5005763;28;20468;-44
2024/01/05 02:16:04;;;;;;;2.10;1.20;;;9.10;99.90;;;;;;5008069;28;20453;-47
2024/01/05 02:18:33;;;;;;;1.57;1.00;;;9.10;99.90;;;;;;5006966;28;20465;-45
2024/01/05 02:21:03;;;;;;;4.70;0.90;;;9.10;99.90;;;;;;5009153;28;20559;-45
2024/01/05 02:23:33;;;;;;;3.43;1.57;;;9.10;99.90;;;;;;5006750;28;20470;-47
2024/01/05 02:26:02;;;;;;;2.60;1.23;;;9.10;99.90;;;;;;5011647;28;20472;-47
2024/01/05 02:28:31;;;;;;;2.27;1.30;;;9.10;99.90;;;;;;5009154;28;21020;-47
2024/01/05 02:30:59;;;;;;;1.40;0.90;;;9.10;99.90;;;;;;5011375;28;20507;-47
2024/01/05 02:33:27;;;;;;;1.67;0.90;;;9.00;99.90;;;;;;5010552;28;20564;-46
2024/01/05 02:35:55;;;;;;;2.00;1.10;;;9.10;99.90;;;;;;5011078;28;20423;-47
2024/01/05 02:38:23;;;;;;;5.73;1.47;;;9.00;99.90;;;;;;5006719;28;20575;-46
2024/01/05 02:40:55;;;;;;;2.00;1.03;;;9.00;99.90;;;;;;5010855;28;20826;-46
2024/01/05 02:43:23;;;;;;;2.07;1.00;;;9.00;99.90;;;;;;5009199;28;20470;-46
2024/01/05 02:45:51;;;;;;;1.60;0.90;;;9.00;99.90;;;;;;5011507;28;20479;-47
2024/01/05 02:48:19;;;;;;;1.63;0.97;;;9.00;99.90;;;;;;5010260;28;20473;-46
2024/01/05 02:50:48;;;;;;;2.97;1.30;;;9.00;99.90;;;;;;5011495;28;20544;-47
2024/01/05 02:53:16;;;;;;;2.40;1.20;;;9.00;99.90;;;;;;5007719;28;20476;-46
2024/01/05 02:55:45;;;;;;;3.10;0.87;;;9.00;99.90;;;;;;5011695;28;20437;-47
2024/01/05 02:58:14;;;;;;;4.93;1.20;;;9.00;99.90;;;;;;5010451;28;20468;-46
2024/01/05 03:00:42;;;;;;;2.17;1.20;;;9.00;99.90;;;;;;5011643;28;20467;-48
2024/01/05 03:03:11;;;;;;;2.83;1.10;;;9.00;99.90;;;;;;5013872;28;20576;-46
2024/01/05 03:05:39;;;;;;;2.57;1.00;;;9.00;99.90;;;;;;5012869;28;20528;-47
2024/01/05 03:08:08;;;;;;;1.40;0.80;;;9.00;99.90;;;;;;5004869;28;20479;-47
2024/01/05 03:10:36;;;;;;;2.13;0.93;;;9.00;99.90;;;;;;5009805;28;20461;-47
2024/01/05 03:13:04;;;;;;;2.73;0.80;;;9.00;99.90;;;;;;5002909;28;20998;-47
2024/01/05 03:15:33;;;;;;;2.30;0.83;;;9.00;99.90;;;;;;5007840;28;20460;-46
2024/01/05 03:18:02;;;;;;;2.43;1.10;;;9.00;99.90;;;;;;5009574;28;21004;-46
2024/01/05 03:20:31;;;;;;;4.00;1.60;;;9.00;99.90;;;;;;5008566;28;20448;-44
2024/01/05 03:22:59;;;;;;;3.60;1.03;;;9.00;99.90;;;;;;5007056;28;20487;-46
2024/01/05 03:25:27;;;;;;;2.13;1.00;;;9.00;99.90;;;;;;5010392;28;20468;-46
2024/01/05 03:27:55;;;;;;;2.97;1.10;;;9.00;99.90;;;;;;5003980;28;20472;-47
2024/01/05 03:30:23;;;;;;;1.87;1.17;;;9.00;99.90;;;;;;5007782;28;20464;-45
2024/01/05 03:32:53;;;;;;;1.40;0.70;;;9.00;99.90;;;;;;5009109;28;20942;-46
2024/01/05 03:35:21;;;;;;;2.87;1.20;;;9.00;99.90;;;;;;5009880;28;20429;-48
2024/01/05 03:37:49;;;;;;;1.80;1.27;;;9.00;99.90;;;;;;5004052;28;20458;-45
2024/01/05 03:40:17;;;;;;;1.90;1.10;;;9.00;99.90;;;;;;5009914;28;20982;-45
2024/01/05 03:42:45;;;;;;;2.60;1.67;;;9.00;99.90;;;;;;5009217;28;20879;-47
2024/01/05 03:45:13;;;;;;;1.67;0.80;;;9.00;99.90;;;;;;5008333;28;20736;-46
2024/01/05 03:47:42;;;;;;;2.30;0.90;;;9.00;99.90;;;;;;5009431;28;20497;-47
2024/01/05 03:50:12;;;;;;;2.60;1.80;;;9.00;99.90;;;;;;5009812;28;20959;-45
2024/01/05 03:52:40;;;;;;;2.10;1.07;;;9.00;99.90;;;;;;5007715;28;20478;-46
2024/01/05 03:55:09;;;;;;;1.53;0.90;;;9.00;99.90;;;;;;5009520;28;20995;-45
2024/01/05 03:57:37;;;;;;;2.97;1.10;;;9.00;99.90;;;;;;5009353;28;20461;-45
2024/01/05 04:00:09;;;;;;;2.80;1.10;;;9.00;99.90;;;;;;5007236;28;20468;-47
2024/01/05 04:02:37;;;;;;;1.80;1.00;;;9.00;99.90;;;;;;5008502;28;20469;-47
2024/01/05 04:05:06;;;;;;;1.87;1.07;;;9.00;99.90;;;;;;5009156;28;20429;-46
2024/01/05 04:07:36;;;;;;;2.07;1.13;;;9.00;99.90;;;;;;5008752;28;20477;-45
2024/01/05 04:10:05;;;;;;;1.30;0.60;;;9.00;99.90;;;;;;5006638;28;20462;-46
2024/01/05 04:12:33;;;;;;;2.63;1.10;;;9.00;99.90;;;;;;5007428;28;20456;-47
2024/01/05 04:15:01;;;;;;;2.03;0.90;;;9.00;99.90;;;;;;5007315;28;20449;-47
2024/01/05 04:17:29;;;;;;;1.60;0.93;;;9.00;99.90;;;;;;5008971;28;20461;-44
2024/01/05 04:19:57;;;;;;;2.43;1.10;;;9.00;99.90;;;;;;5009383;28;20540;-45
2024/01/05 04:22:30;;;;;;;2.40;1.03;;;9.00;99.90;;;;;;5008673;28;21055;-47
2024/01/05 04:25:00;;;;;;;2.20;1.00;;;9.00;99.90;;;;;;5006886;28;20444;-47
2024/01/05 04:27:29;;;;;;;2.63;0.90;;;9.00;99.90;;;;;;5008889;28;20499;-45
2024/01/05 04:29:57;;;;;;;3.40;1.40;;;9.00;99.90;;;;;;5008020;28;20460;-44
2024/01/05 04:32:25;;;;;;;2.33;1.17;;;8.90;99.90;;;;;;5007733;28;20855;-46
2024/01/05 04:34:53;;;;;;;3.97;1.20;;;9.00;99.90;;;;;;5009204;28;20433;-46
2024/01/05 04:37:23;;;;;;;1.83;0.97;;;9.00;99.90;;;;;;5008702;28;20507;-47
2024/01/05 04:39:52;;;;;;;3.37;1.43;;;9.00;99.90;;;;;;5007006;28;20506;-45
2024/01/05 04:42:21;;;;;;;2.20;0.93;;;9.00;99.90;;;;;;5008362;28;20519;-45
2024/01/05 04:44:50;;;;;;;3.00;1.20;;;9.00;99.90;;;;;;5006448;28;20539;-45
2024/01/05 04:47:18;;;;;;;2.37;1.07;;;9.00;99.90;;;;;;5008177;28;20901;-47
2024/01/05 04:49:47;;;;;;;1.83;1.43;;;9.00;99.90;;;;;;5009004;28;20479;-46
2024/01/05 04:52:15;;;;;;;3.07;1.00;;;9.00;99.90;;;;;;5004591;28;20474;-47
2024/01/05 04:54:43;;;;;;;2.03;0.90;;;9.00;99.90;;;;;;5008839;28;20511;-46
2024/01/05 04:57:12;;;;;;;3.90;1.30;;;9.00;99.90;;;;;;5007951;28;21009;-45
2024/01/05 04:59:42;;;;;;;1.63;0.97;;;9.00;99.90;;;;;;5007904;28;20776;-46
2024/01/05 05:02:10;;;;;;;3.53;1.10;;;9.00;99.90;;;;;;5007292;28;20484;-47
2024/01/05 05:04:38;;;;;;;10.63;1.23;;;9.00;99.90;;;;;;5006966;28;20437;-46
2024/01/05 05:07:06;;;;;;;1.70;0.90;;;9.00;99.90;;;;;;5006337;28;20978;-46
2024/01/05 05:09:36;;;;;;;1.90;0.80;;;9.00;99.90;;;;;;5000594;28;20472;-47
2024/01/05 05:12:05;;;;;;;1.27;0.60;;;8.90;99.90;;;;;;5006108;28;20962;-45
2024/01/05 05:14:33;;;;;;;1.90;1.20;;;8.90;99.90;;;;;;5003946;28;20441;-46
2024/01/05 05:17:02;;;;;;;4.13;1.00;;;8.90;99.90;;;;;;5006654;28;20807;-45
2024/01/05 05:19:31;;;;;;;2.00;0.90;;;8.90;99.90;;;;;;5008354;28;20520;-46
2024/01/05 05:21:59;;;;;;;2.50;1.20;;;8.90;99.90;;;;;;5004936;28;20511;-47
2024/01/05 05:24:27;;;;;;;2.27;0.73;;;8.90;99.90;;;;;;4998230;28;20442;-46
2024/01/05 05:26:55;;;;;;;2.23;1.33;;;8.90;99.90;;;;;;5008065;28;20562;-47
2024/01/05 05:29:24;;;;;;;2.40;0.87;;;8.90;99.90;;;;;;5007077;28;20484;-45
2024/01/05 05:31:52;;;;;;;4.00;1.00;;;8.90;99.90;;;;;;5007854;28;20467;-45
2024/01/05 05:34:22;;;;;;;2.47;1.10;;;8.90;99.90;;;;;;5007986;28;20934;-47
2024/01/05 05:36:50;;;;;;;1.57;0.87;;;8.90;99.90;;;;;;5000820;28;20472;-46
2024/01/05 05:39:19;;;;;;;2.37;0.93;;;8.90;99.90;;;;;;5008344;28;20440;-45
2024/01/05 05:41:47;;;;;;;2.23;0.97;;;8.90;99.90;;;;;;5001871;28;20484;-47
2024/01/05 05:44:15;;;;;;;2.40;0.77;;;8.90;99.90;;;;;;5005804;28;20445;-47
2024/01/05 05:46:43;;;;;;;1.20;0.80;;;8.90;99.90;;;;;;5008025;28;20445;-47
2024/01/05 05:49:12;;;;;;;1.90;1.00;;;8.90;99.90;;;;;;5008284;28;20465;-47
2024/01/05 05:51:42;;;;;;;3.57;1.17;;;8.90;99.90;;;;;;5006165;28;20692;-47
2024/01/05 05:54:11;;;;;;;2.10;1.13;;;8.90;99.90;;;;;;5006563;28;20452;-47
2024/01/05 05:56:39;;;;;;;2.43;0.80;;;8.90;99.90;;;;;;5011186;28;20433;-46
2024/01/05 05:59:07;;;;;;;1.60;0.83;;;8.90;99.90;;;;;;5010789;28;20448;-47
2024/01/05 06:01:36;;;;;;;3.13;1.17;;;8.90;99.90;;;;;;5009625;28;20816;-46
2024/01/05 06:04:07;;;;;;;2.07;0.90;;;8.90;99.90;;;;;;5009954;28;20719;-44
2024/01/05 06:06:36;;;;;;;3.50;0.97;;;8.90;99.90;;;;;;5008701;28;20441;-45
2024/01/05 06:09:07;;;;;;;1.93;0.80;;;8.90;99.90;;;;;;5007631;28;20881;-46
2024/01/05 06:11:36;;;;;;;1.57;0.87;;;8.90;99.90;;;;;;5008023;28;20467;-46
2024/01/05 06:14:04;;;;;;;1.40;0.77;;;8.90;99.90;;;;;;5008039;28;20433;-47
2024/01/05 06:16:32;;;;;;;1.80;0.90;;;8.90;99.90;;;;;;5009377;28;20519;-46
2024/01/05 06:19:00;;;;;;;1.80;1.00;;;8.90;99.90;;;;;;5011435;28;20425;-45
2024/01/05 06:21:28;;;;;;;2.00;1.20;;;8.90;99.90;;;;;;5011120;28;20468;-45
2024/01/05 06:23:56;;;;;;;2.33;0.90;;;8.90;99.90;;;;;;5008249;28;20445;-47
2024/01/05 06:26:26;;;;;;;2.03;1.13;;;8.90;99.90;;;;;;5011167;28;20528;-46
2024/01/05 06:28:54;;;;;;;1.80;0.90;;;8.90;99.90;;;;;;5009550;28;20978;-46
2024/01/05 06:31:23;;;;;;;2.53;1.10;;;8.90;99.90;;;;;;5011503;28;20452;-46
2024/01/05 06:33:51;;;;;;;4.10;1.00;;;8.90;99.90;;;;;;5025584;28;20472;-47
2024/01/05 06:36:20;;;;;;;2.47;0.97;;;8.90;99.90;;;;;;5011991;28;20433;-48
2024/01/05 06:38:48;;;;;;;2.20;0.90;;;8.90;99.90;;;;;;5009802;28;20464;-46
2024/01/05 06:41:16;;;;;;;1.83;1.10;;;8.90;99.90;;;;;;5011832;28;20472;-48
2024/01/05 06:43:45;;;;;;;2.13;0.60;;;8.90;99.90;;;;;;5008215;28;20484;-47
2024/01/05 06:46:14;;;;;;;2.80;1.10;;;8.90;99.90;;;;;;5011532;28;20437;-45
2024/01/05 06:48:42;;;;;;;2.10;0.83;;;8.90;99.90;;;;;;5010641;28;20531;-46
2024/01/05 06:51:10;;;;;;;4.57;1.17;;;8.90;99.90;;;;;;5010164;28;20547;-47
2024/01/05 06:53:39;;;;;;;4.03;2.20;;;8.90;99.90;;;;;;5009219;28;20475;-45
2024/01/05 06:56:08;;;;;;;3.70;2.10;;;8.90;99.90;;;;;;5010678;28;20432;-46
2024/01/05 06:58:36;;;;;;;1.73;0.83;;;8.90;99.90;;;;;;5007198;28;20466;-46
2024/01/05 07:01:06;;;;;;;1.70;0.80;;;8.90;99.90;;;;;;5010874;28;20453;-46
2024/01/05 07:03:34;;;;;;;2.40;0.90;;;8.90;99.90;;;;;;5005752;28;20544;-46
2024/01/05 07:06:03;;;;;;;2.73;1.27;;;8.90;99.90;;;;;;5010108;28;20876;-48
2024/01/05 07:08:31;;;;;;;3.53;1.10;;;8.90;99.90;;;;;;5008739;28;20890;-45
2024/01/05 07:10:59;;;;;;;1.90;1.00;;;8.90;99.90;;;;;;5010077;28;20564;-47
2024/01/05 07:13:27;;;;;;;3.10;1.27;;;8.90;99.90;;;;;;5007290;28;20466;-44
2024/01/05 07:15:55;;;;;;;1.30;0.80;;;8.90;99.90;;;;;;5010603;28;20421;-47
2024/01/05 07:18:25;;;;;;;1.90;1.10;;;8.90;99.90;;;;;;5010040;28;20461;-44
2024/01/05 07:20:53;;;;;;;2.03;1.30;;;8.90;99.90;;;;;;5010419;28;20476;-47
2024/01/05 07:23:21;;;;;;;1.67;0.80;;;8.90;99.90;;;;;;5007719;28;20473;-45
2024/01/05 07:25:49;;;;;;;2.80;1.03;;;8.90;99.90;;;;;;5004412;28;20437;-46
2024/01/05 07:28:17;;;;;;;1.40;0.83;;;8.90;99.90;;;;;;5008099;28;20831;-45
2024/01/05 07:30:45;;;;;;;2.20;0.93;;;8.90;99.90;;;;;;5009074;28;20486;-44
2024/01/05 07:33:13;;;;;;;1.83;0.80;;;8.90;99.90;;;;;;5009156;28;20533;-45
2024/01/05 07:35:43;;;;;;;1.40;1.00;;;8.90;99.90;;;;;;5004919;28;20449;-47
2024/01/05 07:38:11;;;;;;;1.63;0.73;;;8.90;99.90;;;;;;5005986;28;20496;-46
2024/01/05 07:40:39;;;;;;;1.20;0.70;;;8.90;99.90;;;;;;5010427;28;20886;-44
2024/01/05 07:43:07;;;;;;;1.60;0.70;;;8.80;99.90;;;;;;5009165;28;20449;-46
2024/01/05 07:45:35;;;;;;;1.40;0.80;;;8.90;99.90;;;;;;5023530;28;20441;-45
2024/01/05 07:48:04;;;;;;;2.43;0.90;;;8.80;99.90;;;;;;5009308;28;20484;-44
2024/01/05 07:50:33;;;;;;;1.63;0.87;;;8.80;99.90;;;;;;5007628;28;20472;-46
2024/01/05 07:53:02;;;;;;;1.90;0.87;;;8.80;99.90;;;;;;5006880;28;20468;-46
2024/01/05 07:55:30;;;;;;;2.03;0.70;;;8.80;99.90;;;;;;5008693;28;20476;-45
2024/01/05 07:57:58;;;;;;;2.50;0.90;;;8.80;99.90;;;;;;5009281;28;20457;-45
2024/01/05 08:00:26;;;;;;;1.60;0.77;;;8.80;99.90;;;;;;5008144;28;20473;-45
2024/01/05 08:02:54;;;;;;;1.87;0.70;;;8.80;99.90;;;;;;5008932;28;20555;-44
2024/01/05 08:05:23;;;;;;;1.53;0.73;;;8.90;99.90;;;;;;5009145;28;20811;-44
2024/01/05 08:07:51;;;;;;;2.57;1.23;;;8.80;99.90;;;;;;5004329;28;21449;-45
2024/01/05 08:10:21;;;;;;;2.07;1.03;;;8.80;99.90;;;;;;5008577;28;20998;-45
2024/01/05 08:12:49;;;;;;;1.50;0.73;;;8.80;99.90;;;;;;5002534;28;20993;-44
2024/01/05 08:15:17;;;;;;;1.57;0.80;;;8.80;99.90;;;;;;5007770;28;20535;-45
2024/01/05 08:17:46;;;;;;;1.87;0.80;;;8.80;99.90;;;;;;5006185;28;20461;-46
2024/01/05 08:20:14;;;;;;;2.80;0.80;;;8.80;99.90;;;;;;5009249;28;21104;-46
2024/01/05 08:22:42;;;;;;;1.77;0.77;;;8.80;99.90;;;;;;5005654;28;20470;-46
2024/01/05 08:25:10;;;;;;;1.63;0.70;;;8.80;99.90;;;;;;5005477;28;21005;-46
2024/01/05 08:27:40;;;;;;;1.70;0.80;;;8.80;99.90;;;;;;5008954;28;20496;-47
2024/01/05 08:30:11;;;;;;;1.83;0.80;;;8.80;99.90;;;;;;5007745;28;20835;-46
2024/01/05 08:32:40;;;;;;;1.33;0.70;;;8.80;99.90;;;;;;5022112;28;20457;-45
2024/01/05 08:35:08;;;;;;;2.33;0.67;;;8.80;99.90;;;;;;5008297;28;20436;-47
2024/01/05 08:37:37;;;;;;;1.60;0.70;;;8.80;99.90;;;;;;5004348;28;20462;-49
2024/01/05 08:40:07;;;;;;;4.03;0.63;;;8.80;99.90;;;;;;5008825;28;20511;-46
2024/01/05 08:42:36;;;;;;;2.27;0.90;;;8.80;99.90;;;;;;5008345;28;20471;-49
2024/01/05 08:45:07;;;;;;;1.80;0.90;;;8.80;99.90;;;;;;5006653;28;20464;-47
2024/01/05 08:47:38;;;;;;;2.10;1.00;;;8.80;99.90;;;;;;5008390;28;20495;-48
2024/01/05 08:50:08;;;;;;;1.47;0.60;;;8.80;99.90;;;;;;5009038;28;20870;-45
2024/01/05 08:52:36;;;;;;;1.37;0.77;;;8.80;99.90;;;;;;5001803;28;20515;-44
2024/01/05 08:55:05;;;;;;;1.30;0.70;;;8.80;99.90;;;;;;5008626;28;20417;-45
2024/01/05 08:57:33;;;;;;;1.47;0.60;;;8.80;99.90;;;;;;5007842;28;20862;-45
2024/01/05 09:00:01;;;;;;;1.63;0.60;;;8.80;99.90;;;;;;5007469;28;20503;-44
2024/01/05 09:02:47;;;;;;;1.73;0.77;;;8.80;99.90;;;;;;5023037;28;20465;-45
2024/01/05 09:05:15;;;;;;;1.50;0.80;;;8.80;99.90;;;;;;5008363;28;20461;-45
2024/01/05 09:07:43;;;;;;;2.43;0.70;;;8.80;99.90;;;;;;5004989;28;20464;-45
2024/01/05 09:10:12;;;;;;;1.20;0.53;;;8.80;99.90;;;;;;5007601;28;20465;-45
2024/01/05 09:12:40;;;;;;;1.53;0.63;;;8.80;99.90;;;;;;5006490;28;20556;-45
2024/01/05 09:15:12;;;;;;;1.40;0.63;;;8.80;99.90;;;;;;5007121;28;20444;-45
2024/01/05 09:17:43;;;;;;;1.20;0.60;;;8.80;99.90;;;;;;5007941;28;20916;-44
2024/01/05 09:20:13;;;;;;;2.20;0.80;;;8.80;99.90;;;;;;5008738;28;21178;-45
2024/01/05 09:22:41;;;;;;;1.53;0.60;;;8.90;99.90;;;;;;5005986;28;20504;-45
2024/01/05 09:25:10;;;;;;;2.40;0.60;;;8.90;99.90;;;;;;5007834;28;20437;-45
2024/01/05 09:27:38;;;;;;;1.10;0.50;;;8.90;99.90;;;;;;5021791;28;20465;-45
2024/01/05 09:30:08;;;;;;;1.47;0.70;;;8.90;99.90;;;;;;5008384;28;20482;-45
2024/01/05 09:32:36;;;;;;;3.00;0.67;;;8.90;99.90;;;;;;5005286;28;21328;-46
2024/01/05 09:35:08;;;;;;;1.43;0.60;;;8.90;99.90;;;;;;5010240;28;20447;-45
2024/01/05 09:37:38;;;;;;;1.53;0.67;;;8.90;99.90;;;;;;5009107;28;20475;-46
2024/01/05 09:40:10;;;;;;;1.80;0.80;;;8.90;99.90;;;;;;5012127;28;20989;-44
2024/01/05 09:42:41;;;;;;;1.00;0.40;;;8.90;99.90;;;;;;5008651;28;20465;-49
2024/01/05 09:45:11;;;;;;;1.83;0.60;;;8.90;99.90;;;;;;5007654;28;20451;-47
2024/01/05 09:47:42;;;;;;;1.30;0.63;;;8.90;99.90;;;;;;5010379;28;20557;-46
2024/01/05 09:50:12;;;;;;;1.10;0.60;;;8.90;99.90;;;;;;5011812;28;20537;-47
2024/01/05 09:52:44;;;;;;;2.30;0.60;;;8.90;99.90;;;;;;5008209;28;20568;-47
2024/01/05 09:55:13;;;;;;;2.60;0.63;;;8.90;99.90;;;;;;5025757;28;20441;-48
2024/01/05 09:57:42;;;;;;;2.40;0.70;;;9.00;99.90;;;;;;5011891;28;21021;-49
2024/01/05 10:00:16;;;;;;;3.10;0.80;;;9.00;99.90;;;;;;5007503;28;20477;-44
2024/01/05 10:02:56;;;;;;;2.70;0.73;;;9.00;99.90;;;;;;5009850;28;20563;-50
2024/01/05 10:05:25;;;;;;;2.57;0.67;;;8.90;99.90;;;;;;5010981;28;20720;-45
2024/01/05 10:07:54;;;;;;;5.07;0.80;;;8.90;99.90;;;;;;5007844;28;20480;-45
2024/01/05 10:10:42;;;;;;;1.80;0.60;;;8.90;99.90;;;;;;5011300;28;20488;-47
2024/01/05 10:13:10;;;;;;;1.80;0.70;;;8.90;99.90;;;;;;5010972;28;20472;-45
2024/01/05 10:15:52;;;;;;;2.17;0.80;;;9.00;99.90;;;;;;5010523;28;20456;-46
2024/01/05 10:18:22;;;;;;;1.73;0.50;;;9.00;99.90;;;;;;5010405;28;20468;-50
2024/01/05 10:20:53;;;;;;;1.33;0.53;;;9.00;99.90;;;;;;5024398;28;20527;-46
2024/01/05 10:23:23;;;;;;;3.20;0.60;;;8.90;99.90;;;;;;5003359;28;20464;-49
2024/01/05 10:25:51;;;;;;;1.60;0.50;;;9.00;99.90;;;;;;5009107;28;20444;-47
2024/01/05 10:28:27;;;;;;;1.37;0.57;;;9.00;99.90;;;;;;5007420;28;20461;-48
2024/01/05 10:31:11;;;;;;;1.87;0.67;;;9.00;99.90;;;;;;5008931;28;20440;-47
2024/01/05 10:33:51;;;;;;;1.50;0.80;;;9.00;99.90;;;;;;5008107;28;20559;-48
2024/01/05 10:36:20;;;;;;;2.43;0.50;;;9.00;99.90;;;;;;5008155;28;20432;-48
2024/01/05 10:38:51;;;;;;;1.70;0.60;;;9.00;99.90;;;;;;5005373;28;20465;-45
2024/01/05 10:41:20;;;;;;;2.23;0.80;;;9.00;99.90;;;;;;5007326;28;20467;-46
2024/01/05 10:43:49;;;;;;;2.17;0.50;;;9.00;99.90;;;;;;5003678;28;20492;-50
2024/01/05 10:46:20;;;;;;;1.40;0.70;;;9.00;99.90;;;;;;5006926;28;20429;-48
2024/01/05 10:48:49;;;;;;;1.17;0.50;;;9.10;99.90;;;;;;5019702;28;20811;-46
2024/01/05 10:51:18;;;;;;;1.67;0.60;;;9.10;99.90;;;;;;5007160;28;20560;-49
2024/01/05 10:53:48;;;;;;;1.13;0.60;;;9.10;99.90;;;;;;4993464;28;20486;-49
2024/01/05 10:56:18;;;;;;;2.00;0.50;;;9.10;99.90;;;;;;5006624;28;20437;-48
2024/01/05 10:58:49;;;;;;;1.80;0.80;;;9.10;99.90;;;;;;5020975;28;20492;-46
2024/01/05 11:01:20;;;;;;;1.40;0.50;;;9.10;99.90;;;;;;5012265;28;20483;-48
2024/01/05 11:03:53;;;;;;;1.40;0.70;;;9.10;99.90;;;;;;5012227;28;20460;-48
2024/01/05 11:06:22;;;;;;;3.23;0.63;;;9.00;99.90;;;;;;5009509;28;20859;-50
2024/01/05 11:09:13;;;;;;;2.50;0.60;;;9.10;99.90;;;;;;5012006;28;20518;-46
2024/01/05 11:11:55;;;;;;;2.57;0.67;;;9.00;99.90;;;;;;5003407;28;20557;-47
2024/01/05 11:14:40;;;;;;;2.23;0.80;;;9.00;99.90;;;;;;5009628;28;20445;-46
2024/01/05 11:17:29;;;;;;;1.57;0.60;;;9.00;99.90;;;;;;5012084;28;20555;-46
2024/01/05 11:20:17;;;;;;;2.10;0.80;;;9.00;99.90;;;;;;5010811;28;20460;-46
2024/01/05 11:22:49;;;;;;;1.20;0.43;;;9.00;99.90;;;;;;5008588;28;20620;-46
2024/01/05 11:25:18;;;;;;;1.20;0.50;;;9.00;99.90;;;;;;5005200;28;20468;-47
2024/01/05 11:27:48;;;;;;;1.43;0.57;;;9.00;99.90;;;;;;5012509;28;20469;-48
2024/01/05 11:33:06;;;;;;;1.73;0.50;;;9.00;99.90;;;;;;5019500;28;20646;-44
2024/01/05 11:35:43;;;;;;;1.10;0.50;;;9.00;99.90;;;;;;5020558;28;20452;-44
2024/01/05 11:38:27;;;;;;;2.10;0.50;;;9.00;99.90;;;;;;5002798;28;20470;-44
2024/01/05 11:40:56;;;;;;;2.30;0.40;;;9.00;99.90;;;;;;5022656;28;20555;-44
2024/01/05 11:43:37;;;;;;;1.33;0.50;;;9.00;99.90;;;;;;5025637;28;20464;-43
2024/01/05 11:46:07;;;;;;;2.03;0.50;;;9.10;99.90;;;;;;4998441;28;21022;-43
2024/01/05 11:48:50;;;;;;;1.20;0.50;;;9.10;99.90;;;;;;5021135;28;20987;-45
2024/01/05 11:51:22;;;;;;;1.27;0.40;;;9.00;99.90;;;;;;5027804;28;20478;-44
2024/01/05 11:53:50;;;;;;;1.00;0.40;;;9.00;99.90;;;;;;5026988;28;20456;-44
2024/01/05 11:56:21;;;;;;;1.20;0.50;;;9.00;99.90;;;;;;5028624;28;20429;-43
2024/01/05 11:58:51;;;;;;;1.37;0.50;;;9.10;99.90;;;;;;5017546;28;20486;-44
2024/01/05 12:01:21;;;;;;;2.20;0.60;;;9.10;99.90;;;;;;5027870;28;20548;-44
2024/01/05 12:03:53;;;;;;;1.23;0.47;;;9.10;99.90;;;;;;5022148;28;20457;-45
2024/01/05 12:06:22;;;;;;;1.83;0.60;;;9.10;99.90;;;;;;5028567;28;20806;-44
2024/01/05 12:08:50;;;;;;;1.30;0.63;;;9.10;99.90;;;;;;5021406;28;20498;-44
2024/01/05 12:11:21;;;;;;;1.00;0.47;;;9.10;99.90;;;;;;5028482;28;20937;-44
2024/01/05 12:13:51;;;;;;;1.60;0.60;;;9.10;99.90;;;;;;5013775;28;20513;-44
2024/01/05 12:16:24;;;;;;;2.30;0.50;;;9.10;99.90;;;;;;5027365;28;20437;-44
2024/01/05 12:18:52;;;;;;;1.57;0.40;;;9.10;99.90;;;;;;5018126;28;20521;-43
2024/01/05 12:21:22;;;;;;;1.10;0.40;;;9.10;99.90;;;;;;5021853;28;20495;-43
2024/01/05 12:23:53;;;;;;;1.23;0.53;;;9.10;99.90;;;;;;5013986;28;20989;-43
2024/01/05 12:26:22;;;;;;;1.43;0.97;;;9.10;99.90;;;;;;5025536;28;20486;-44
2024/01/05 12:28:51;;;;;;;1.50;0.97;;;9.10;99.90;;;;;;5017530;28;20476;-44
2024/01/05 12:31:20;;;;;;;1.50;1.00;;;9.10;99.90;;;;;;5027815;28;20459;-43
2024/01/05 12:33:49;;;;;;;2.73;1.10;;;9.10;99.90;;;;;;5018418;28;20529;-43
2024/01/05 12:36:27;;;;;;;2.00;0.83;;;9.10;99.90;;;;;;5028204;28;20467;-44
2024/01/05 12:39:08;;;;;;;1.43;0.70;;;9.10;99.90;;;;;;5015876;28;20969;-43
2024/01/05 12:41:39;;;;;;;1.20;0.70;;;9.10;99.90;;;;;;5026955;28;20553;-44
2024/01/05 12:44:10;;;;;;;1.67;1.00;;;9.10;99.90;;;;;;5025340;28;20447;-45
2024/01/05 12:46:42;;;;;;;2.90;1.00;;;9.10;99.90;;;;;;5025879;28;20790;-43
2024/01/05 12:49:21;;;;;;;2.47;1.00;;;9.10;99.90;;;;;;5027217;28;20438;-44
2024/01/05 12:51:52;;;;;;;1.80;1.17;;;9.10;99.90;;;;;;5012580;28;20459;-43
2024/01/05 12:54:21;;;;;;;6.80;0.93;;;9.10;99.90;;;;;;5025705;28;20534;-43
2024/01/05 12:56:53;;;;;;;1.23;0.67;;;9.10;99.90;;;;;;5021027;28;20828;-42
2024/01/05 12:59:24;;;;;;;2.83;0.70;;;9.10;99.90;;;;;;5025512;28;20448;-43
2024/01/05 13:01:59;;;;;;;1.23;0.63;;;9.10;99.90;;;;;;5020727;28;20456;-44
2024/01/05 13:04:33;;;;;;;1.77;0.57;;;9.10;99.90;;;;;;5009060;28;20601;-44
2024/01/05 13:07:10;;;;;;;1.87;0.77;;;9.10;99.90;;;;;;5027513;28;20459;-44
2024/01/05 13:09:38;;;;;;;2.13;0.77;;;9.10;99.90;;;;;;5024079;28;20494;-43
2024/01/05 13:12:08;;;;;;;1.63;0.77;;;9.10;99.90;;;;;;5027340;28;20504;-42
2024/01/05 13:14:37;;;;;;;1.80;0.83;;;9.10;99.90;;;;;;5026210;28;20456;-42
2024/01/05 13:17:06;;;;;;;1.80;0.73;;;9.10;99.90;;;;;;5027159;28;20822;-44
2024/01/05 13:19:35;;;;;;;1.90;0.70;;;9.10;99.90;;;;;;5007479;28;20432;-44